Rocky Butte, Washington
Current Conditions -  °F | °C
As of 12:53 PM on Thursday 27 Nov 2014 (Local Time) from KOMK Reporting Station
Clear Clear  
Wind Chill:   Ceiling: Unl
Heat Index:   Visibility: 10mi
Dew Point:   Wind: 7mph
Humidity: 79%   Direction: 140°SE
Pressure: 29.74"   Gusts: NA
Location:  48.2133°N, 119.829°W
Report Text: KOMK 272053Z AUTO 14006KT 10SM CLR 07/03 A2974 RMK AO2 SLP081 T00670033 58019
Loading
Personal Weather Stations






























Interactive Weather Map New forecast layout! Learn more

10-Day Weather Forecast

Advertisements
Track Severe Weather on mobile